sensor_id;sensor_type;location;lat;lon;timestamp;P1;durP1;ratioP1;P2;durP2;ratioP2
39442;SDS011;25147;52.142;9.960;2023-12-20T00:00:04;3.85;;;3.53;;
39442;SDS011;25147;52.142;9.960;2023-12-20T00:02:32;4.20;;;3.80;;
39442;SDS011;25147;52.142;9.960;2023-12-20T00:05:02;4.18;;;3.80;;
39442;SDS011;25147;52.142;9.960;2023-12-20T00:07:34;3.78;;;3.47;;
39442;SDS011;25147;52.142;9.960;2023-12-20T00:10:04;4.80;;;4.40;;
39442;SDS011;25147;52.142;9.960;2023-12-20T00:12:35;3.53;;;3.22;;
39442;SDS011;25147;52.142;9.960;2023-12-20T00:15:02;4.03;;;3.72;;
39442;SDS011;25147;52.142;9.960;2023-12-20T00:17:30;3.65;;;3.35;;
39442;SDS011;25147;52.142;9.960;2023-12-20T00:19:57;3.90;;;3.60;;
39442;SDS011;25147;52.142;9.960;2023-12-20T00:22:26;3.85;;;3.50;;
39442;SDS011;25147;52.142;9.960;2023-12-20T00:24:53;4.10;;;3.80;;
39442;SDS011;25147;52.142;9.960;2023-12-20T00:27:20;4.07;;;3.78;;
39442;SDS011;25147;52.142;9.960;2023-12-20T00:29:47;4.90;;;4.50;;
39442;SDS011;25147;52.142;9.960;2023-12-20T00:32:15;4.47;;;4.13;;
39442;SDS011;25147;52.142;9.960;2023-12-20T00:34:43;4.90;;;4.50;;
39442;SDS011;25147;52.142;9.960;2023-12-20T00:37:10;5.25;;;4.75;;
39442;SDS011;25147;52.142;9.960;2023-12-20T00:39:39;7.53;;;5.03;;
39442;SDS011;25147;52.142;9.960;2023-12-20T00:42:06;6.15;;;5.55;;
39442;SDS011;25147;52.142;9.960;2023-12-20T00:44:35;5.78;;;5.22;;
39442;SDS011;25147;52.142;9.960;2023-12-20T00:47:03;6.75;;;6.05;;
39442;SDS011;25147;52.142;9.960;2023-12-20T00:49:30;6.40;;;5.80;;
39442;SDS011;25147;52.142;9.960;2023-12-20T00:51:58;7.50;;;6.43;;
39442;SDS011;25147;52.142;9.960;2023-12-20T00:54:28;7.20;;;6.50;;
39442;SDS011;25147;52.142;9.960;2023-12-20T00:56:59;7.90;;;7.10;;
39442;SDS011;25147;52.142;9.960;2023-12-20T00:59:28;8.65;;;7.75;;
39442;SDS011;25147;52.142;9.960;2023-12-20T01:02:03;10.82;;;8.80;;
39442;SDS011;25147;52.142;9.960;2023-12-20T01:04:36;9.18;;;8.27;;
39442;SDS011;25147;52.142;9.960;2023-12-20T01:07:04;10.25;;;8.93;;
39442;SDS011;25147;52.142;9.960;2023-12-20T01:09:39;10.45;;;9.35;;
39442;SDS011;25147;52.142;9.960;2023-12-20T01:12:15;11.70;;;8.23;;
39442;SDS011;25147;52.142;9.960;2023-12-20T01:14:44;11.25;;;8.80;;
39442;SDS011;25147;52.142;9.960;2023-12-20T01:17:17;9.23;;;8.02;;
39442;SDS011;25147;52.142;9.960;2023-12-20T01:19:45;11.00;;;6.60;;
39442;SDS011;25147;52.142;9.960;2023-12-20T01:22:16;8.25;;;5.82;;
39442;SDS011;25147;52.142;9.960;2023-12-20T01:24:54;10.80;;;4.85;;
39442;SDS011;25147;52.142;9.960;2023-12-20T01:27:42;7.82;;;4.10;;
39442;SDS011;25147;52.142;9.960;2023-12-20T01:30:22;6.03;;;3.75;;
39442;SDS011;25147;52.142;9.960;2023-12-20T01:32:50;4.55;;;3.10;;
39442;SDS011;25147;52.142;9.960;2023-12-20T01:35:25;6.50;;;3.28;;
39442;SDS011;25147;52.142;9.960;2023-12-20T01:37:52;14.45;;;3.58;;
39442;SDS011;25147;52.142;9.960;2023-12-20T01:40:25;8.00;;;3.38;;
39442;SDS011;25147;52.142;9.960;2023-12-20T01:43:09;11.00;;;3.40;;
39442;SDS011;25147;52.142;9.960;2023-12-20T01:45:42;6.35;;;3.05;;
39442;SDS011;25147;52.142;9.960;2023-12-20T01:48:18;13.73;;;4.18;;
39442;SDS011;25147;52.142;9.960;2023-12-20T01:50:55;8.93;;;2.80;;
39442;SDS011;25147;52.142;9.960;2023-12-20T01:53:29;5.38;;;3.05;;
39442;SDS011;25147;52.142;9.960;2023-12-20T01:56:01;6.75;;;1.95;;
39442;SDS011;25147;52.142;9.960;2023-12-20T01:58:42;8.45;;;2.83;;
39442;SDS011;25147;52.142;9.960;2023-12-20T02:01:12;5.68;;;2.15;;
39442;SDS011;25147;52.142;9.960;2023-12-20T02:03:40;8.90;;;2.20;;
39442;SDS011;25147;52.142;9.960;2023-12-20T02:06:08;13.23;;;2.67;;
39442;SDS011;25147;52.142;9.960;2023-12-20T02:08:36;10.10;;;1.95;;
39442;SDS011;25147;52.142;9.960;2023-12-20T02:11:10;6.35;;;2.20;;
39442;SDS011;25147;52.142;9.960;2023-12-20T02:13:42;8.90;;;2.08;;
39442;SDS011;25147;52.142;9.960;2023-12-20T02:16:09;7.97;;;2.10;;
39442;SDS011;25147;52.142;9.960;2023-12-20T02:18:43;8.93;;;2.13;;
39442;SDS011;25147;52.142;9.960;2023-12-20T02:21:26;8.18;;;1.90;;
39442;SDS011;25147;52.142;9.960;2023-12-20T02:24:03;8.23;;;1.65;;
39442;SDS011;25147;52.142;9.960;2023-12-20T02:26:31;5.47;;;1.83;;
39442;SDS011;25147;52.142;9.960;2023-12-20T02:29:09;4.00;;;1.65;;
39442;SDS011;25147;52.142;9.960;2023-12-20T02:31:48;9.02;;;2.03;;
39442;SDS011;25147;52.142;9.960;2023-12-20T02:34:21;11.07;;;2.00;;
39442;SDS011;25147;52.142;9.960;2023-12-20T02:36:58;7.45;;;1.70;;
39442;SDS011;25147;52.142;9.960;2023-12-20T02:39:25;8.00;;;1.83;;
39442;SDS011;25147;52.142;9.960;2023-12-20T02:42:01;6.20;;;1.55;;
39442;SDS011;25147;52.142;9.960;2023-12-20T02:44:31;5.70;;;1.42;;
39442;SDS011;25147;52.142;9.960;2023-12-20T02:47:02;6.43;;;1.60;;
39442;SDS011;25147;52.142;9.960;2023-12-20T02:49:32;7.32;;;1.50;;
39442;SDS011;25147;52.142;9.960;2023-12-20T02:52:14;7.80;;;1.67;;
39442;SDS011;25147;52.142;9.960;2023-12-20T02:54:45;7.22;;;1.90;;
39442;SDS011;25147;52.142;9.960;2023-12-20T02:57:28;6.45;;;1.92;;
39442;SDS011;25147;52.142;9.960;2023-12-20T03:00:05;5.50;;;1.80;;
39442;SDS011;25147;52.142;9.960;2023-12-20T03:02:39;5.78;;;1.67;;
39442;SDS011;25147;52.142;9.960;2023-12-20T03:05:17;8.48;;;1.75;;
39442;SDS011;25147;52.142;9.960;2023-12-20T03:07:59;3.08;;;1.27;;
39442;SDS011;25147;52.142;9.960;2023-12-20T03:10:36;6.05;;;1.48;;
39442;SDS011;25147;52.142;9.960;2023-12-20T03:13:09;6.75;;;1.48;;
39442;SDS011;25147;52.142;9.960;2023-12-20T03:15:42;7.88;;;1.60;;
39442;SDS011;25147;52.142;9.960;2023-12-20T03:18:24;3.65;;;1.40;;
39442;SDS011;25147;52.142;9.960;2023-12-20T03:20:57;2.83;;;1.10;;
39442;SDS011;25147;52.142;9.960;2023-12-20T03:23:43;6.90;;;1.50;;
39442;SDS011;25147;52.142;9.960;2023-12-20T03:26:15;6.03;;;1.58;;
39442;SDS011;25147;52.142;9.960;2023-12-20T03:28:43;7.85;;;1.90;;
39442;SDS011;25147;52.142;9.960;2023-12-20T03:31:19;8.13;;;1.67;;
39442;SDS011;25147;52.142;9.960;2023-12-20T03:33:50;5.07;;;1.42;;
39442;SDS011;25147;52.142;9.960;2023-12-20T03:36:21;7.03;;;1.85;;
39442;SDS011;25147;52.142;9.960;2023-12-20T03:38:56;7.18;;;2.00;;
39442;SDS011;25147;52.142;9.960;2023-12-20T03:41:44;5.93;;;2.03;;
39442;SDS011;25147;52.142;9.960;2023-12-20T03:44:20;7.43;;;1.58;;
39442;SDS011;25147;52.142;9.960;2023-12-20T03:47:00;5.15;;;1.63;;
39442;SDS011;25147;52.142;9.960;2023-12-20T03:49:40;7.40;;;1.77;;
39442;SDS011;25147;52.142;9.960;2023-12-20T03:52:14;7.32;;;1.80;;
39442;SDS011;25147;52.142;9.960;2023-12-20T03:54:47;6.28;;;1.60;;
39442;SDS011;25147;52.142;9.960;2023-12-20T03:57:29;4.32;;;1.55;;
39442;SDS011;25147;52.142;9.960;2023-12-20T04:00:08;9.82;;;1.90;;
39442;SDS011;25147;52.142;9.960;2023-12-20T04:02:58;5.82;;;2.03;;
39442;SDS011;25147;52.142;9.960;2023-12-20T04:05:45;8.18;;;1.90;;
39442;SDS011;25147;52.142;9.960;2023-12-20T04:08:19;6.30;;;1.60;;
39442;SDS011;25147;52.142;9.960;2023-12-20T04:11:02;5.93;;;1.30;;
39442;SDS011;25147;52.142;9.960;2023-12-20T04:13:34;6.72;;;1.67;;
39442;SDS011;25147;52.142;9.960;2023-12-20T04:16:13;4.25;;;1.52;;
39442;SDS011;25147;52.142;9.960;2023-12-20T04:18:49;6.47;;;1.95;;
39442;SDS011;25147;52.142;9.960;2023-12-20T04:21:36;6.10;;;2.08;;
39442;SDS011;25147;52.142;9.960;2023-12-20T04:24:46;8.48;;;1.65;;
39442;SDS011;25147;52.142;9.960;2023-12-20T04:27:16;7.40;;;2.22;;
39442;SDS011;25147;52.142;9.960;2023-12-20T04:29:54;9.43;;;1.80;;
39442;SDS011;25147;52.142;9.960;2023-12-20T04:32:47;4.88;;;1.40;;
39442;SDS011;25147;52.142;9.960;2023-12-20T04:35:22;6.93;;;2.38;;
39442;SDS011;25147;52.142;9.960;2023-12-20T04:38:03;7.35;;;1.60;;
39442;SDS011;25147;52.142;9.960;2023-12-20T04:40:44;7.75;;;2.00;;
39442;SDS011;25147;52.142;9.960;2023-12-20T04:43:24;8.02;;;1.65;;
39442;SDS011;25147;52.142;9.960;2023-12-20T04:46:02;9.23;;;2.15;;
39442;SDS011;25147;52.142;9.960;2023-12-20T04:48:33;9.45;;;2.20;;
39442;SDS011;25147;52.142;9.960;2023-12-20T04:51:05;6.88;;;2.00;;
39442;SDS011;25147;52.142;9.960;2023-12-20T04:53:44;8.65;;;1.75;;
39442;SDS011;25147;52.142;9.960;2023-12-20T04:56:21;6.05;;;2.40;;
39442;SDS011;25147;52.142;9.960;2023-12-20T04:58:52;9.55;;;2.20;;
39442;SDS011;25147;52.142;9.960;2023-12-20T05:01:31;7.43;;;1.98;;
39442;SDS011;25147;52.142;9.960;2023-12-20T05:04:02;9.02;;;2.85;;
39442;SDS011;25147;52.142;9.960;2023-12-20T05:07:07;7.68;;;2.70;;
39442;SDS011;25147;52.142;9.960;2023-12-20T05:09:42;9.13;;;1.95;;
39442;SDS011;25147;52.142;9.960;2023-12-20T05:12:30;6.85;;;2.45;;
39442;SDS011;25147;52.142;9.960;2023-12-20T05:15:14;9.63;;;2.63;;
39442;SDS011;25147;52.142;9.960;2023-12-20T05:17:53;8.13;;;2.30;;
39442;SDS011;25147;52.142;9.960;2023-12-20T05:20:28;8.02;;;2.55;;
39442;SDS011;25147;52.142;9.960;2023-12-20T05:22:58;10.38;;;3.08;;
39442;SDS011;25147;52.142;9.960;2023-12-20T05:25:40;5.90;;;2.38;;
39442;SDS011;25147;52.142;9.960;2023-12-20T05:28:23;7.97;;;3.20;;
39442;SDS011;25147;52.142;9.960;2023-12-20T05:31:13;8.45;;;2.53;;
39442;SDS011;25147;52.142;9.960;2023-12-20T05:33:54;10.73;;;2.72;;
39442;SDS011;25147;52.142;9.960;2023-12-20T05:36:31;8.15;;;2.65;;
39442;SDS011;25147;52.142;9.960;2023-12-20T05:39:01;11.55;;;2.95;;
39442;SDS011;25147;52.142;9.960;2023-12-20T05:41:46;8.75;;;3.33;;
39442;SDS011;25147;52.142;9.960;2023-12-20T05:44:17;9.48;;;2.92;;
39442;SDS011;25147;52.142;9.960;2023-12-20T05:47:07;8.30;;;2.22;;
39442;SDS011;25147;52.142;9.960;2023-12-20T05:49:51;9.95;;;3.00;;
39442;SDS011;25147;52.142;9.960;2023-12-20T05:52:29;9.13;;;3.15;;
39442;SDS011;25147;52.142;9.960;2023-12-20T05:55:02;10.23;;;3.30;;
39442;SDS011;25147;52.142;9.960;2023-12-20T05:57:40;10.73;;;3.22;;
39442;SDS011;25147;52.142;9.960;2023-12-20T06:00:09;9.27;;;3.50;;
39442;SDS011;25147;52.142;9.960;2023-12-20T06:02:44;8.93;;;3.35;;
39442;SDS011;25147;52.142;9.960;2023-12-20T06:05:15;10.82;;;3.42;;
39442;SDS011;25147;52.142;9.960;2023-12-20T06:07:47;12.75;;;3.17;;
39442;SDS011;25147;52.142;9.960;2023-12-20T06:10:22;11.13;;;3.70;;
39442;SDS011;25147;52.142;9.960;2023-12-20T06:12:55;10.98;;;3.40;;
39442;SDS011;25147;52.142;9.960;2023-12-20T06:15:26;13.07;;;3.63;;
39442;SDS011;25147;52.142;9.960;2023-12-20T06:20:59;12.57;;;3.58;;
39442;SDS011;25147;52.142;9.960;2023-12-20T06:23:37;13.82;;;4.25;;
39442;SDS011;25147;52.142;9.960;2023-12-20T06:26:07;12.40;;;3.63;;
39442;SDS011;25147;52.142;9.960;2023-12-20T06:28:43;12.73;;;3.67;;
39442;SDS011;25147;52.142;9.960;2023-12-20T06:31:23;13.68;;;3.67;;
39442;SDS011;25147;52.142;9.960;2023-12-20T06:33:59;14.65;;;4.22;;
39442;SDS011;25147;52.142;9.960;2023-12-20T06:36:28;8.93;;;3.40;;
39442;SDS011;25147;52.142;9.960;2023-12-20T06:39:07;18.00;;;4.03;;
39442;SDS011;25147;52.142;9.960;2023-12-20T06:41:50;14.82;;;3.63;;
39442;SDS011;25147;52.142;9.960;2023-12-20T06:44:22;10.68;;;3.70;;
39442;SDS011;25147;52.142;9.960;2023-12-20T06:46:52;9.13;;;3.47;;
39442;SDS011;25147;52.142;9.960;2023-12-20T06:49:27;12.25;;;3.75;;
39442;SDS011;25147;52.142;9.960;2023-12-20T06:52:03;14.00;;;3.78;;
39442;SDS011;25147;52.142;9.960;2023-12-20T06:54:33;12.85;;;4.15;;
39442;SDS011;25147;52.142;9.960;2023-12-20T06:57:09;11.68;;;3.83;;
39442;SDS011;25147;52.142;9.960;2023-12-20T06:59:38;16.30;;;4.53;;
39442;SDS011;25147;52.142;9.960;2023-12-20T07:02:22;15.38;;;3.92;;
39442;SDS011;25147;52.142;9.960;2023-12-20T07:05:01;10.43;;;3.67;;
39442;SDS011;25147;52.142;9.960;2023-12-20T07:07:39;11.52;;;3.53;;
39442;SDS011;25147;52.142;9.960;2023-12-20T07:10:16;12.15;;;3.42;;
39442;SDS011;25147;52.142;9.960;2023-12-20T07:12:43;13.45;;;3.90;;
39442;SDS011;25147;52.142;9.960;2023-12-20T07:15:14;7.78;;;3.50;;
39442;SDS011;25147;52.142;9.960;2023-12-20T07:20:43;11.15;;;3.53;;
39442;SDS011;25147;52.142;9.960;2023-12-20T07:23:20;12.40;;;3.13;;
39442;SDS011;25147;52.142;9.960;2023-12-20T07:25:49;14.48;;;3.10;;
39442;SDS011;25147;52.142;9.960;2023-12-20T07:28:28;11.50;;;3.35;;
39442;SDS011;25147;52.142;9.960;2023-12-20T07:30:59;10.70;;;2.97;;
39442;SDS011;25147;52.142;9.960;2023-12-20T07:33:30;8.95;;;3.58;;
39442;SDS011;25147;52.142;9.960;2023-12-20T07:36:13;9.50;;;2.60;;
39442;SDS011;25147;52.142;9.960;2023-12-20T07:38:52;11.85;;;3.00;;
39442;SDS011;25147;52.142;9.960;2023-12-20T07:41:31;11.63;;;3.35;;
39442;SDS011;25147;52.142;9.960;2023-12-20T07:44:00;9.57;;;3.20;;
39442;SDS011;25147;52.142;9.960;2023-12-20T07:46:30;10.55;;;2.97;;
39442;SDS011;25147;52.142;9.960;2023-12-20T07:48:59;10.93;;;2.80;;
39442;SDS011;25147;52.142;9.960;2023-12-20T07:51:33;13.18;;;3.58;;
39442;SDS011;25147;52.142;9.960;2023-12-20T07:54:06;13.05;;;3.40;;
39442;SDS011;25147;52.142;9.960;2023-12-20T07:56:51;10.07;;;3.58;;
39442;SDS011;25147;52.142;9.960;2023-12-20T07:59:28;15.57;;;3.75;;
39442;SDS011;25147;52.142;9.960;2023-12-20T08:02:33;11.20;;;3.30;;
39442;SDS011;25147;52.142;9.960;2023-12-20T08:05:30;12.38;;;3.28;;
39442;SDS011;25147;52.142;9.960;2023-12-20T08:11:40;10.70;;;3.33;;
39442;SDS011;25147;52.142;9.960;2023-12-20T08:14:16;15.63;;;4.43;;
39442;SDS011;25147;52.142;9.960;2023-12-20T08:16:52;10.25;;;3.03;;
39442;SDS011;25147;52.142;9.960;2023-12-20T08:19:35;12.35;;;3.17;;
39442;SDS011;25147;52.142;9.960;2023-12-20T08:22:08;13.88;;;3.60;;
39442;SDS011;25147;52.142;9.960;2023-12-20T08:24:54;14.32;;;3.63;;
39442;SDS011;25147;52.142;9.960;2023-12-20T08:27:35;8.23;;;3.30;;
39442;SDS011;25147;52.142;9.960;2023-12-20T08:30:10;13.60;;;3.42;;
39442;SDS011;25147;52.142;9.960;2023-12-20T08:35:45;10.98;;;3.90;;
39442;SDS011;25147;52.142;9.960;2023-12-20T08:38:13;14.55;;;4.20;;
39442;SDS011;25147;52.142;9.960;2023-12-20T08:40:44;13.77;;;3.40;;
39442;SDS011;25147;52.142;9.960;2023-12-20T08:43:18;15.10;;;3.53;;
39442;SDS011;25147;52.142;9.960;2023-12-20T08:46:00;11.63;;;3.13;;
39442;SDS011;25147;52.142;9.960;2023-12-20T08:48:44;13.57;;;3.33;;
39442;SDS011;25147;52.142;9.960;2023-12-20T08:51:20;10.45;;;3.20;;
39442;SDS011;25147;52.142;9.960;2023-12-20T08:53:51;11.57;;;3.45;;
39442;SDS011;25147;52.142;9.960;2023-12-20T08:56:23;9.70;;;3.72;;
39442;SDS011;25147;52.142;9.960;2023-12-20T08:58:50;10.43;;;3.03;;
39442;SDS011;25147;52.142;9.960;2023-12-20T09:01:17;11.82;;;3.75;;
39442;SDS011;25147;52.142;9.960;2023-12-20T09:03:51;10.35;;;2.72;;
39442;SDS011;25147;52.142;9.960;2023-12-20T09:06:18;7.55;;;3.17;;
39442;SDS011;25147;52.142;9.960;2023-12-20T09:08:58;11.57;;;2.97;;
39442;SDS011;25147;52.142;9.960;2023-12-20T09:11:32;8.85;;;3.67;;
39442;SDS011;25147;52.142;9.960;2023-12-20T09:14:00;12.48;;;3.40;;
39442;SDS011;25147;52.142;9.960;2023-12-20T09:16:29;12.93;;;3.40;;
39442;SDS011;25147;52.142;9.960;2023-12-20T09:19:02;10.85;;;3.17;;
39442;SDS011;25147;52.142;9.960;2023-12-20T09:21:29;11.95;;;3.67;;
39442;SDS011;25147;52.142;9.960;2023-12-20T09:23:59;8.55;;;3.00;;
39442;SDS011;25147;52.142;9.960;2023-12-20T09:26:28;8.93;;;3.67;;
39442;SDS011;25147;52.142;9.960;2023-12-20T09:28:58;7.15;;;2.97;;
39442;SDS011;25147;52.142;9.960;2023-12-20T09:31:29;8.88;;;3.40;;
39442;SDS011;25147;52.142;9.960;2023-12-20T09:34:01;10.57;;;3.25;;
39442;SDS011;25147;52.142;9.960;2023-12-20T09:36:31;8.38;;;2.85;;
39442;SDS011;25147;52.142;9.960;2023-12-20T09:39:01;14.10;;;3.53;;
39442;SDS011;25147;52.142;9.960;2023-12-20T09:41:33;14.00;;;3.65;;
39442;SDS011;25147;52.142;9.960;2023-12-20T09:44:14;10.73;;;3.40;;
39442;SDS011;25147;52.142;9.960;2023-12-20T09:46:51;10.15;;;3.70;;
39442;SDS011;25147;52.142;9.960;2023-12-20T09:49:27;13.60;;;3.88;;
39442;SDS011;25147;52.142;9.960;2023-12-20T09:52:02;12.45;;;3.55;;
39442;SDS011;25147;52.142;9.960;2023-12-20T09:54:34;10.50;;;3.53;;
39442;SDS011;25147;52.142;9.960;2023-12-20T09:57:06;11.07;;;3.35;;
39442;SDS011;25147;52.142;9.960;2023-12-20T09:59:45;7.55;;;2.72;;
39442;SDS011;25147;52.142;9.960;2023-12-20T10:02:14;11.48;;;3.63;;
39442;SDS011;25147;52.142;9.960;2023-12-20T10:04:50;11.52;;;3.15;;
39442;SDS011;25147;52.142;9.960;2023-12-20T10:07:23;14.68;;;3.20;;
39442;SDS011;25147;52.142;9.960;2023-12-20T10:09:55;11.90;;;3.28;;
39442;SDS011;25147;52.142;9.960;2023-12-20T10:12:27;9.35;;;3.22;;
39442;SDS011;25147;52.142;9.960;2023-12-20T10:14:57;12.90;;;3.30;;
39442;SDS011;25147;52.142;9.960;2023-12-20T10:17:27;8.20;;;2.58;;
39442;SDS011;25147;52.142;9.960;2023-12-20T10:20:05;9.15;;;2.90;;
39442;SDS011;25147;52.142;9.960;2023-12-20T10:22:37;10.07;;;3.45;;
39442;SDS011;25147;52.142;9.960;2023-12-20T10:25:16;9.40;;;3.28;;
39442;SDS011;25147;52.142;9.960;2023-12-20T10:28:08;10.50;;;3.70;;
39442;SDS011;25147;52.142;9.960;2023-12-20T10:30:40;13.20;;;3.92;;
39442;SDS011;25147;52.142;9.960;2023-12-20T10:33:23;11.75;;;3.45;;
39442;SDS011;25147;52.142;9.960;2023-12-20T10:35:55;10.95;;;3.95;;
39442;SDS011;25147;52.142;9.960;2023-12-20T10:38:41;7.53;;;3.25;;
39442;SDS011;25147;52.142;9.960;2023-12-20T10:41:12;8.55;;;3.67;;
39442;SDS011;25147;52.142;9.960;2023-12-20T10:43:48;7.43;;;3.50;;
39442;SDS011;25147;52.142;9.960;2023-12-20T10:46:17;11.75;;;4.03;;
39442;SDS011;25147;52.142;9.960;2023-12-20T10:48:49;9.25;;;3.78;;
39442;SDS011;25147;52.142;9.960;2023-12-20T10:51:23;7.07;;;3.90;;
39442;SDS011;25147;52.142;9.960;2023-12-20T10:54:00;8.75;;;3.58;;
39442;SDS011;25147;52.142;9.960;2023-12-20T10:56:44;11.90;;;3.78;;
39442;SDS011;25147;52.142;9.960;2023-12-20T10:59:16;11.02;;;4.13;;
39442;SDS011;25147;52.142;9.960;2023-12-20T11:01:49;11.05;;;3.47;;
39442;SDS011;25147;52.142;9.960;2023-12-20T11:04:25;9.63;;;3.70;;
39442;SDS011;25147;52.142;9.960;2023-12-20T11:07:15;11.23;;;3.97;;
39442;SDS011;25147;52.142;9.960;2023-12-20T11:09:59;10.27;;;4.05;;
39442;SDS011;25147;52.142;9.960;2023-12-20T11:12:40;9.65;;;4.43;;
39442;SDS011;25147;52.142;9.960;2023-12-20T11:15:21;10.50;;;3.67;;
39442;SDS011;25147;52.142;9.960;2023-12-20T11:17:54;10.85;;;4.13;;
39442;SDS011;25147;52.142;9.960;2023-12-20T11:20:35;8.50;;;3.80;;
39442;SDS011;25147;52.142;9.960;2023-12-20T11:23:04;9.77;;;4.15;;
39442;SDS011;25147;52.142;9.960;2023-12-20T11:28:26;11.95;;;4.28;;
39442;SDS011;25147;52.142;9.960;2023-12-20T11:31:00;11.63;;;4.38;;
39442;SDS011;25147;52.142;9.960;2023-12-20T11:33:30;13.48;;;4.60;;
39442;SDS011;25147;52.142;9.960;2023-12-20T11:36:13;9.60;;;4.18;;
39442;SDS011;25147;52.142;9.960;2023-12-20T11:38:49;8.82;;;4.20;;
39442;SDS011;25147;52.142;9.960;2023-12-20T11:41:27;14.07;;;4.90;;
39442;SDS011;25147;52.142;9.960;2023-12-20T11:43:56;8.85;;;4.45;;
39442;SDS011;25147;52.142;9.960;2023-12-20T11:46:30;9.82;;;4.28;;
39442;SDS011;25147;52.142;9.960;2023-12-20T11:49:00;9.02;;;4.03;;
39442;SDS011;25147;52.142;9.960;2023-12-20T11:51:31;12.98;;;4.38;;
39442;SDS011;25147;52.142;9.960;2023-12-20T11:54:09;8.80;;;4.30;;
39442;SDS011;25147;52.142;9.960;2023-12-20T11:56:50;9.05;;;3.83;;
39442;SDS011;25147;52.142;9.960;2023-12-20T11:59:32;7.65;;;3.63;;
39442;SDS011;25147;52.142;9.960;2023-12-20T12:02:01;7.95;;;3.70;;
39442;SDS011;25147;52.142;9.960;2023-12-20T12:04:37;9.23;;;4.22;;
39442;SDS011;25147;52.142;9.960;2023-12-20T12:07:06;12.57;;;3.90;;
39442;SDS011;25147;52.142;9.960;2023-12-20T12:09:34;6.22;;;3.20;;
39442;SDS011;25147;52.142;9.960;2023-12-20T12:12:09;11.82;;;3.00;;
39442;SDS011;25147;52.142;9.960;2023-12-20T12:14:51;11.23;;;3.15;;
39442;SDS011;25147;52.142;9.960;2023-12-20T12:17:24;7.47;;;3.60;;
39442;SDS011;25147;52.142;9.960;2023-12-20T12:20:03;11.07;;;3.45;;
39442;SDS011;25147;52.142;9.960;2023-12-20T12:22:35;10.73;;;2.95;;
39442;SDS011;25147;52.142;9.960;2023-12-20T12:25:11;5.35;;;1.45;;
39442;SDS011;25147;52.142;9.960;2023-12-20T12:27:43;2.70;;;1.10;;
39442;SDS011;25147;52.142;9.960;2023-12-20T12:30:18;3.05;;;1.10;;
39442;SDS011;25147;52.142;9.960;2023-12-20T12:32:47;4.33;;;1.23;;
39442;SDS011;25147;52.142;9.960;2023-12-20T12:35:20;2.53;;;0.70;;
39442;SDS011;25147;52.142;9.960;2023-12-20T12:37:47;3.57;;;1.10;;
39442;SDS011;25147;52.142;9.960;2023-12-20T12:40:15;4.70;;;1.03;;
39442;SDS011;25147;52.142;9.960;2023-12-20T12:42:45;2.73;;;0.83;;
39442;SDS011;25147;52.142;9.960;2023-12-20T12:45:13;3.87;;;1.30;;
39442;SDS011;25147;52.142;9.960;2023-12-20T12:47:41;3.30;;;1.27;;
39442;SDS011;25147;52.142;9.960;2023-12-20T12:50:12;2.23;;;0.90;;
39442;SDS011;25147;52.142;9.960;2023-12-20T12:52:48;2.20;;;1.00;;
39442;SDS011;25147;52.142;9.960;2023-12-20T12:55:18;4.03;;;0.90;;
39442;SDS011;25147;52.142;9.960;2023-12-20T12:57:55;0.80;;;0.57;;
39442;SDS011;25147;52.142;9.960;2023-12-20T13:00:27;3.83;;;1.23;;
39442;SDS011;25147;52.142;9.960;2023-12-20T13:03:01;2.07;;;0.53;;
39442;SDS011;25147;52.142;9.960;2023-12-20T13:05:30;1.80;;;0.80;;
39442;SDS011;25147;52.142;9.960;2023-12-20T13:08:02;2.67;;;1.17;;
39442;SDS011;25147;52.142;9.960;2023-12-20T13:10:31;1.13;;;0.80;;
39442;SDS011;25147;52.142;9.960;2023-12-20T13:13:08;3.83;;;1.13;;
39442;SDS011;25147;52.142;9.960;2023-12-20T13:15:36;2.07;;;0.60;;
39442;SDS011;25147;52.142;9.960;2023-12-20T13:18:03;1.60;;;0.60;;
39442;SDS011;25147;52.142;9.960;2023-12-20T13:20:37;3.07;;;0.90;;
39442;SDS011;25147;52.142;9.960;2023-12-20T13:23:08;6.13;;;1.10;;
39442;SDS011;25147;52.142;9.960;2023-12-20T13:25:37;1.53;;;0.70;;
39442;SDS011;25147;52.142;9.960;2023-12-20T13:28:06;2.53;;;0.63;;
39442;SDS011;25147;52.142;9.960;2023-12-20T13:30:35;2.73;;;0.90;;
39442;SDS011;25147;52.142;9.960;2023-12-20T13:33:05;1.00;;;0.90;;
39442;SDS011;25147;52.142;9.960;2023-12-20T13:35:37;2.42;;;0.60;;
39442;SDS011;25147;52.142;9.960;2023-12-20T13:38:04;1.67;;;0.63;;
39442;SDS011;25147;52.142;9.960;2023-12-20T13:40:34;3.67;;;0.75;;
39442;SDS011;25147;52.142;9.960;2023-12-20T13:43:22;2.08;;;0.88;;
39442;SDS011;25147;52.142;9.960;2023-12-20T13:46:13;5.47;;;0.90;;
39442;SDS011;25147;52.142;9.960;2023-12-20T13:49:01;1.25;;;0.55;;
39442;SDS011;25147;52.142;9.960;2023-12-20T13:51:31;0.93;;;0.50;;
39442;SDS011;25147;52.142;9.960;2023-12-20T13:53:59;3.45;;;0.77;;
39442;SDS011;25147;52.142;9.960;2023-12-20T13:56:30;1.17;;;0.60;;
39442;SDS011;25147;52.142;9.960;2023-12-20T13:58:58;5.30;;;1.00;;
39442;SDS011;25147;52.142;9.960;2023-12-20T14:01:28;5.25;;;1.20;;
39442;SDS011;25147;52.142;9.960;2023-12-20T14:03:55;3.30;;;1.02;;
39442;SDS011;25147;52.142;9.960;2023-12-20T14:06:23;3.67;;;1.20;;
39442;SDS011;25147;52.142;9.960;2023-12-20T14:08:54;3.83;;;1.00;;
39442;SDS011;25147;52.142;9.960;2023-12-20T14:11:26;4.53;;;1.40;;
39442;SDS011;25147;52.142;9.960;2023-12-20T14:13:54;2.95;;;1.20;;
39442;SDS011;25147;52.142;9.960;2023-12-20T14:16:25;5.15;;;1.40;;
39442;SDS011;25147;52.142;9.960;2023-12-20T14:18:52;4.38;;;1.50;;
39442;SDS011;25147;52.142;9.960;2023-12-20T14:21:22;3.20;;;1.20;;
39442;SDS011;25147;52.142;9.960;2023-12-20T14:23:52;2.38;;;1.13;;
39442;SDS011;25147;52.142;9.960;2023-12-20T14:26:19;3.90;;;1.42;;
39442;SDS011;25147;52.142;9.960;2023-12-20T14:28:49;6.47;;;1.52;;
39442;SDS011;25147;52.142;9.960;2023-12-20T14:31:16;4.78;;;1.30;;
39442;SDS011;25147;52.142;9.960;2023-12-20T14:33:47;5.35;;;1.10;;
39442;SDS011;25147;52.142;9.960;2023-12-20T14:36:16;2.15;;;1.05;;
39442;SDS011;25147;52.142;9.960;2023-12-20T14:38:43;4.90;;;1.17;;
39442;SDS011;25147;52.142;9.960;2023-12-20T14:41:12;4.38;;;1.60;;
39442;SDS011;25147;52.142;9.960;2023-12-20T14:43:42;5.43;;;1.23;;
39442;SDS011;25147;52.142;9.960;2023-12-20T14:46:12;6.80;;;1.60;;
39442;SDS011;25147;52.142;9.960;2023-12-20T14:48:40;7.57;;;1.38;;
39442;SDS011;25147;52.142;9.960;2023-12-20T14:51:07;5.43;;;1.60;;
39442;SDS011;25147;52.142;9.960;2023-12-20T14:53:38;7.20;;;2.20;;
39442;SDS011;25147;52.142;9.960;2023-12-20T14:56:07;5.32;;;1.77;;
39442;SDS011;25147;52.142;9.960;2023-12-20T14:58:36;8.65;;;1.42;;
39442;SDS011;25147;52.142;9.960;2023-12-20T15:01:07;4.28;;;1.60;;
39442;SDS011;25147;52.142;9.960;2023-12-20T15:03:34;5.18;;;1.48;;
39442;SDS011;25147;52.142;9.960;2023-12-20T15:06:04;6.30;;;2.00;;
39442;SDS011;25147;52.142;9.960;2023-12-20T15:08:31;6.45;;;1.30;;
39442;SDS011;25147;52.142;9.960;2023-12-20T15:11:01;3.70;;;1.50;;
39442;SDS011;25147;52.142;9.960;2023-12-20T15:13:29;7.47;;;1.48;;
39442;SDS011;25147;52.142;9.960;2023-12-20T15:15:58;4.63;;;1.70;;
39442;SDS011;25147;52.142;9.960;2023-12-20T15:18:30;5.07;;;1.48;;
39442;SDS011;25147;52.142;9.960;2023-12-20T15:20:57;4.90;;;1.70;;
39442;SDS011;25147;52.142;9.960;2023-12-20T15:23:25;5.95;;;1.25;;
39442;SDS011;25147;52.142;9.960;2023-12-20T15:25:54;4.53;;;2.00;;
39442;SDS011;25147;52.142;9.960;2023-12-20T15:28:23;6.28;;;1.90;;
39442;SDS011;25147;52.142;9.960;2023-12-20T15:30:50;6.53;;;1.95;;
39442;SDS011;25147;52.142;9.960;2023-12-20T15:33:21;4.20;;;1.40;;
39442;SDS011;25147;52.142;9.960;2023-12-20T15:36:19;4.00;;;1.50;;
39442;SDS011;25147;52.142;9.960;2023-12-20T15:38:49;4.90;;;1.58;;